createdAt,value
2023-04-02T00:00:52.454Z,99.50
2023-04-02T00:01:52.485Z,99.60
2023-04-02T00:02:52.476Z,99.60
2023-04-02T00:03:52.457Z,99.50
2023-04-02T00:04:52.394Z,99.91
2023-04-02T00:05:52.399Z,99.91
2023-04-02T00:06:52.370Z,99.70
2023-04-02T00:07:52.372Z,99.09
2023-04-02T00:08:52.360Z,99.09
2023-04-02T00:09:52.348Z,98.74
2023-04-02T00:10:52.344Z,98.68
2023-04-02T00:11:52.317Z,99.70
2023-04-02T00:12:52.314Z,99.80
2023-04-02T00:13:52.296Z,99.50
2023-04-02T00:14:52.294Z,99.91
2023-04-02T00:15:52.290Z,99.70
2023-04-02T00:16:52.326Z,99.99
2023-04-02T00:17:52.307Z,99.80
2023-04-02T00:18:52.256Z,99.40
2023-04-02T00:19:52.231Z,99.50
2023-04-02T00:20:52.251Z,99.99
2023-04-02T00:21:52.226Z,99.55
2023-04-02T00:22:52.210Z,99.40
2023-04-02T00:23:52.195Z,98.88
2023-04-02T00:24:52.184Z,98.78
2023-04-02T00:25:52.180Z,99.80
2023-04-02T00:26:52.166Z,98.68
2023-04-02T00:27:52.149Z,98.21
2023-04-02T00:28:52.157Z,96.26
2023-04-02T00:29:52.138Z,96.51
2023-04-02T00:30:52.127Z,96.20
2023-04-02T00:31:52.126Z,95.59
2023-04-02T00:32:52.173Z,94.81
2023-04-02T00:33:52.087Z,95.23
2023-04-02T00:34:52.080Z,95.07
2023-04-02T00:35:52.106Z,95.32
2023-04-02T00:36:52.059Z,94.71
2023-04-02T00:37:52.049Z,94.92
2023-04-02T00:38:52.035Z,94.40
2023-04-02T00:39:52.023Z,93.32
2023-04-02T00:40:52.012Z,93.63
2023-04-02T00:41:52.010Z,93.93
2023-04-02T00:42:51.991Z,94.96
2023-04-02T00:43:51.982Z,94.14
2023-04-02T00:44:51.974Z,94.45
2023-04-02T00:45:51.990Z,94.90
2023-04-02T00:46:51.960Z,94.59
2023-04-02T00:47:51.971Z,94.18
2023-04-02T00:48:51.933Z,94.29
2023-04-02T00:49:51.921Z,95.52
2023-04-02T00:50:51.912Z,95.31
2023-04-02T00:51:51.903Z,94.18
2023-04-02T00:52:51.903Z,94.18
2023-04-02T00:53:51.871Z,94.39
2023-04-02T00:54:51.880Z,94.29
2023-04-02T00:55:51.852Z,94.12
2023-04-02T00:56:51.910Z,94.33
2023-04-02T00:57:51.829Z,94.23
2023-04-02T00:58:51.825Z,94.02
2023-04-02T00:59:51.828Z,93.71
2023-04-02T01:00:51.799Z,94.37
2023-04-02T01:01:51.825Z,94.12
2023-04-02T01:02:51.863Z,94.27
2023-04-02T01:03:51.825Z,94.12
2023-04-02T01:04:51.762Z,94.37
2023-04-02T01:05:51.743Z,93.96
2023-04-02T01:06:51.747Z,93.65
2023-04-02T01:07:51.737Z,94.17
2023-04-02T01:08:51.713Z,93.65
2023-04-02T01:09:51.724Z,94.27
2023-04-02T01:10:51.697Z,93.96
2023-04-02T01:11:51.689Z,94.78
2023-04-02T01:12:51.678Z,94.99
2023-04-02T01:13:51.659Z,94.78
2023-04-02T01:14:51.654Z,94.62
2023-04-02T01:15:51.655Z,93.70
2023-04-02T01:16:51.639Z,94.31
2023-04-02T01:17:52.856Z,94.11
2023-04-02T01:18:52.736Z,94.21
2023-04-02T01:19:52.770Z,93.80
2023-04-02T01:20:52.709Z,94.11
2023-04-02T01:21:52.712Z,94.62
2023-04-02T01:22:52.695Z,94.36
2023-04-02T01:23:52.714Z,94.15
2023-04-02T01:24:52.673Z,93.95
2023-04-02T01:25:52.667Z,94.56
2023-04-02T01:26:52.670Z,93.84
2023-04-02T01:27:52.641Z,94.15
2023-04-02T01:28:52.623Z,94.36
2023-04-02T01:29:52.616Z,93.74
2023-04-02T01:30:52.634Z,94.26
2023-04-02T01:31:52.609Z,94.36
2023-04-02T01:32:52.615Z,93.84
2023-04-02T01:33:52.581Z,94.26
2023-04-02T01:34:52.567Z,94.46
2023-04-02T01:35:52.606Z,94.26
2023-04-02T01:36:52.568Z,93.95
2023-04-02T01:37:52.538Z,93.54
2023-04-02T01:38:52.552Z,93.64
2023-04-02T01:39:52.519Z,93.33
2023-04-02T01:40:52.513Z,94.15
2023-04-02T01:41:52.521Z,93.64
2023-04-02T01:42:52.497Z,93.23
2023-04-02T01:43:52.476Z,93.12
2023-04-02T01:44:52.471Z,93.54
2023-04-02T01:45:52.475Z,93.58
2023-04-02T01:46:52.556Z,92.44
2023-04-02T01:47:52.474Z,92.55
2023-04-02T01:48:52.429Z,92.55
2023-04-02T01:49:52.740Z,92.96
2023-04-02T01:50:52.408Z,92.24
2023-04-02T01:51:52.418Z,92.86
2023-04-02T01:52:52.405Z,93.11
2023-04-02T01:53:52.394Z,93.48
2023-04-02T01:54:52.378Z,93.11
2023-04-02T01:55:52.354Z,93.27
2023-04-02T01:56:52.372Z,92.55
2023-04-02T01:57:52.340Z,92.44
2023-04-02T01:58:52.323Z,93.01
2023-04-02T01:59:52.315Z,93.73
2023-04-02T02:00:52.329Z,93.21
2023-04-02T02:01:52.350Z,93.21
2023-04-02T02:02:52.313Z,93.21
2023-04-02T02:03:52.282Z,93.41
2023-04-02T02:04:52.269Z,93.77
2023-04-02T02:05:52.276Z,93.41
2023-04-02T02:06:52.274Z,93.41
2023-04-02T02:07:52.241Z,93.62
2023-04-02T02:08:52.227Z,93.52
2023-04-02T02:09:52.243Z,93.62
2023-04-02T02:10:52.201Z,94.76
2023-04-02T02:11:52.202Z,94.13
2023-04-02T02:12:52.204Z,93.62
2023-04-02T02:13:52.179Z,93.93
2023-04-02T02:14:52.223Z,93.98
2023-04-02T02:15:52.158Z,94.03
2023-04-02T02:16:52.142Z,94.13
2023-04-02T02:17:52.208Z,94.18
2023-04-02T02:18:52.135Z,94.08
2023-04-02T02:19:52.121Z,94.24
2023-04-02T02:20:52.107Z,94.24
2023-04-02T02:21:52.093Z,94.18
2023-04-02T02:22:52.099Z,94.49
2023-04-02T02:23:52.085Z,94.18
2023-04-02T02:24:52.079Z,94.08
2023-04-02T02:25:52.064Z,94.24
2023-04-02T02:26:52.056Z,93.56
2023-04-02T02:27:52.054Z,93.98
2023-04-02T02:28:52.032Z,94.38
2023-04-02T02:29:52.028Z,94.80
2023-04-02T02:30:52.013Z,94.28
2023-04-02T02:31:52.024Z,94.18
2023-04-02T02:32:52.063Z,93.77
2023-04-02T02:33:51.996Z,93.05
2023-04-02T02:34:51.976Z,93.15
2023-04-02T02:35:52.048Z,93.46
2023-04-02T02:36:51.950Z,93.46
2023-04-02T02:37:51.959Z,93.87
2023-04-02T02:38:54.062Z,93.77
2023-04-02T02:39:52.928Z,93.15
2023-04-02T02:40:51.913Z,93.35
2023-04-02T02:41:51.907Z,93.25
2023-04-02T02:42:51.902Z,93.40
2023-04-02T02:43:51.886Z,93.87
2023-04-02T02:44:51.873Z,93.40
2023-04-02T02:45:51.884Z,94.08
2023-04-02T02:46:51.850Z,94.18
2023-04-02T02:47:51.902Z,94.23
2023-04-02T02:48:51.829Z,94.28
2023-04-02T02:49:51.823Z,94.49
2023-04-02T02:50:51.815Z,94.23
2023-04-02T02:51:51.799Z,94.64
2023-04-02T02:52:51.797Z,94.80
2023-04-02T02:53:51.794Z,94.80
2023-04-02T02:54:51.780Z,94.64
2023-04-02T02:55:51.757Z,94.53
2023-04-02T02:56:51.766Z,93.81
2023-04-02T02:57:51.751Z,94.43
2023-04-02T02:58:51.729Z,94.23
2023-04-02T02:59:51.722Z,94.23
2023-04-02T03:00:51.708Z,94.23
2023-04-02T03:01:51.698Z,94.12
2023-04-02T03:02:51.768Z,94.02
2023-04-02T03:03:51.913Z,94.32
2023-04-02T03:04:51.667Z,94.23
2023-04-02T03:05:51.664Z,93.60
2023-04-02T03:06:51.647Z,93.60
2023-04-02T03:07:51.656Z,93.30
2023-04-02T03:08:51.631Z,93.81
2023-04-02T03:09:51.621Z,94.37
2023-04-02T03:10:51.610Z,93.13
2023-04-02T03:11:51.604Z,92.51
2023-04-02T03:12:51.602Z,93.30
2023-04-02T03:13:51.582Z,92.41
2023-04-02T03:14:51.573Z,93.13
2023-04-02T03:15:51.586Z,93.34
2023-04-02T03:16:51.549Z,92.25
2023-04-02T03:17:51.644Z,92.14
2023-04-02T03:18:51.534Z,92.35
2023-04-02T03:19:51.532Z,92.25
2023-04-02T03:20:51.505Z,91.94
2023-04-02T03:21:51.497Z,93.38
2023-04-02T03:22:51.498Z,93.38
2023-04-02T03:23:51.476Z,93.38
2023-04-02T03:24:51.482Z,92.66
2023-04-02T03:25:51.457Z,93.18
2023-04-02T03:26:51.448Z,92.97
2023-04-02T03:27:51.449Z,92.14
2023-04-02T03:28:51.436Z,92.46
2023-04-02T03:29:51.420Z,92.86
2023-04-02T03:30:51.475Z,92.50
2023-04-02T03:31:51.406Z,93.38
2023-04-02T03:32:51.473Z,92.55
2023-04-02T03:33:51.383Z,91.94
2023-04-02T03:34:51.369Z,93.59
2023-04-02T03:35:51.382Z,93.79
2023-04-02T03:36:51.355Z,93.59
2023-04-02T03:37:51.352Z,92.60
2023-04-02T03:38:51.331Z,93.49
2023-04-02T03:39:51.328Z,91.77
2023-04-02T03:40:51.307Z,92.50
2023-04-02T03:41:51.299Z,92.60
2023-04-02T03:42:51.294Z,93.43
2023-04-02T03:43:51.277Z,93.28
2023-04-02T03:44:51.287Z,93.59
2023-04-02T03:45:51.256Z,93.18
2023-04-02T03:46:51.282Z,93.18
2023-04-02T03:47:51.289Z,93.94
2023-04-02T03:48:51.226Z,93.69
2023-04-02T03:49:51.216Z,93.53
2023-04-02T03:50:51.213Z,93.49
2023-04-02T03:51:51.207Z,93.84
2023-04-02T03:52:51.195Z,93.22
2023-04-02T03:53:51.191Z,93.94
2023-04-02T03:54:53.791Z,93.43
2023-04-02T03:55:51.155Z,94.15
2023-04-02T03:56:51.182Z,93.84
2023-04-02T03:57:51.135Z,94.15
2023-04-02T03:58:51.142Z,94.56
2023-04-02T03:59:51.113Z,94.15
2023-04-02T04:00:51.109Z,94.56
2023-04-02T04:01:51.145Z,93.94
2023-04-02T04:02:51.128Z,94.35
2023-04-02T04:03:51.093Z,94.15
2023-04-02T04:04:51.062Z,94.56
2023-04-02T04:05:51.058Z,93.63
2023-04-02T04:06:51.044Z,93.73
2023-04-02T04:07:51.039Z,93.63
2023-04-02T04:08:51.030Z,93.47
2023-04-02T04:09:51.014Z,93.68
2023-04-02T04:10:51.047Z,92.64
2023-04-02T04:11:50.994Z,92.13
2023-04-02T04:12:51.001Z,92.02
2023-04-02T04:13:50.983Z,92.02
2023-04-02T04:14:50.961Z,91.24
2023-04-02T04:15:51.059Z,91.24
2023-04-02T04:16:50.981Z,92.23
2023-04-02T04:17:50.995Z,92.23
2023-04-02T04:18:50.930Z,92.48
2023-04-02T04:19:50.909Z,91.96
2023-04-02T04:20:50.952Z,92.85
2023-04-02T04:21:50.887Z,92.79
2023-04-02T04:22:50.881Z,92.74
2023-04-02T04:23:50.879Z,92.89
2023-04-02T04:24:50.863Z,92.38
2023-04-02T04:25:50.851Z,92.07
2023-04-02T04:26:50.840Z,92.38
2023-04-02T04:27:50.831Z,92.79
2023-04-02T04:28:50.861Z,92.68
2023-04-02T04:29:50.822Z,92.58
2023-04-02T04:30:50.813Z,93.30
2023-04-02T04:31:50.853Z,92.58
2023-04-02T04:32:50.796Z,93.20
2023-04-02T04:33:50.789Z,93.93
2023-04-02T04:34:50.783Z,93.97
2023-04-02T04:35:50.805Z,92.68
2023-04-02T04:36:50.750Z,93.41
2023-04-02T04:37:50.727Z,93.04
2023-04-02T04:38:50.733Z,92.68
2023-04-02T04:39:50.711Z,93.66
2023-04-02T04:40:50.710Z,93.14
2023-04-02T04:41:50.700Z,93.10
2023-04-02T04:42:50.691Z,93.51
2023-04-02T04:43:50.683Z,92.58
2023-04-02T04:44:50.666Z,93.76
2023-04-02T04:45:50.686Z,92.93
2023-04-02T04:46:50.647Z,93.55
2023-04-02T04:47:50.683Z,93.76
2023-04-02T04:48:50.640Z,93.76
2023-04-02T04:49:50.620Z,93.30
2023-04-02T04:50:50.610Z,92.21
2023-04-02T04:51:50.601Z,93.35
2023-04-02T04:52:50.591Z,93.51
2023-04-02T04:53:50.586Z,93.55
2023-04-02T04:54:50.568Z,93.35
2023-04-02T04:55:50.554Z,93.45
2023-04-02T04:56:50.559Z,93.55
2023-04-02T04:57:50.540Z,93.87
2023-04-02T04:58:50.532Z,93.66
2023-04-02T04:59:50.522Z,93.97
2023-04-02T05:00:50.506Z,93.66
2023-04-02T05:01:50.695Z,93.87
2023-04-02T05:02:50.525Z,93.76
2023-04-02T05:03:50.493Z,94.38
2023-04-02T05:04:52.872Z,94.38
2023-04-02T05:05:50.458Z,93.97
2023-04-02T05:06:50.443Z,93.97
2023-04-02T05:07:50.442Z,93.39
2023-04-02T05:08:50.431Z,93.70
2023-04-02T05:09:50.422Z,93.60
2023-04-02T05:10:51.390Z,93.70
2023-04-02T05:11:50.392Z,93.60
2023-04-02T05:12:51.265Z,93.80
2023-04-02T05:13:50.387Z,93.39
2023-04-02T05:14:50.364Z,93.08
2023-04-02T05:15:50.363Z,92.77
2023-04-02T05:16:50.343Z,93.49
2023-04-02T05:17:50.372Z,93.60
2023-04-02T05:18:50.334Z,93.60
2023-04-02T05:19:50.316Z,93.33
2023-04-02T05:20:50.302Z,93.74
2023-04-02T05:21:50.290Z,93.49
2023-04-02T05:22:50.280Z,92.91
2023-04-02T05:23:50.278Z,93.70
2023-04-02T05:24:50.269Z,93.64
2023-04-02T05:25:50.257Z,93.85
2023-04-02T05:26:50.243Z,93.43
2023-04-02T05:27:50.221Z,93.64
2023-04-02T05:28:50.228Z,93.70
2023-04-02T05:29:50.196Z,92.91
2023-04-02T05:30:50.191Z,93.02
2023-04-02T05:31:50.361Z,93.02
2023-04-02T05:32:50.197Z,92.61
2023-04-02T05:33:50.178Z,93.02
2023-04-02T05:34:50.165Z,93.54
2023-04-02T05:35:50.190Z,92.50
2023-04-02T05:36:50.134Z,92.91
2023-04-02T05:37:50.133Z,93.02
2023-04-02T05:38:50.113Z,92.91
2023-04-02T05:39:50.117Z,92.30
2023-04-02T05:40:50.094Z,93.23
2023-04-02T05:41:50.085Z,92.09
2023-04-02T05:42:50.081Z,92.50
2023-04-02T05:43:50.072Z,92.24
2023-04-02T05:44:51.058Z,92.34
2023-04-02T05:45:50.044Z,92.71
2023-04-02T05:46:50.086Z,92.96
2023-04-02T05:47:50.051Z,92.65
2023-04-02T05:48:50.014Z,92.91
2023-04-02T05:49:50.022Z,93.02
2023-04-02T05:50:49.996Z,92.09
2023-04-02T05:51:49.985Z,92.65
2023-04-02T05:52:49.969Z,92.40
2023-04-02T05:53:49.965Z,92.34
2023-04-02T05:54:49.967Z,92.44
2023-04-02T05:55:49.953Z,92.81
2023-04-02T05:56:49.970Z,92.44
2023-04-02T05:58:07.032Z,92.71
2023-04-02T05:58:51.988Z,92.19
2023-04-02T05:59:49.904Z,92.61
2023-04-02T06:00:49.888Z,92.30
2023-04-02T06:01:49.914Z,91.78
2023-04-02T06:02:49.903Z,91.51
2023-04-02T06:03:49.881Z,91.72
2023-04-02T06:04:49.859Z,91.51
2023-04-02T06:05:49.835Z,92.50
2023-04-02T06:06:49.848Z,92.40
2023-04-02T06:07:49.815Z,92.34
2023-04-02T06:08:49.813Z,92.34
2023-04-02T06:09:49.808Z,92.34
2023-04-02T06:10:49.785Z,91.82
2023-04-02T06:11:49.770Z,92.13
2023-04-02T06:12:49.770Z,92.65
2023-04-02T06:13:49.759Z,92.03
2023-04-02T06:14:49.754Z,91.51
2023-04-02T06:15:49.739Z,90.89
2023-04-02T06:16:49.774Z,91.61
2023-04-02T06:17:49.730Z,91.41
2023-04-02T06:18:49.698Z,91.82
2023-04-02T06:19:49.704Z,91.41
2023-04-02T06:20:49.684Z,91.41
2023-04-02T06:21:49.677Z,91.47
2023-04-02T06:22:49.656Z,92.13
2023-04-02T06:23:49.651Z,91.61
2023-04-02T06:24:49.643Z,91.57
2023-04-02T06:25:49.622Z,91.51
2023-04-02T06:26:49.612Z,91.51
2023-04-02T06:27:49.913Z,91.41
2023-04-02T06:28:49.609Z,91.30
2023-04-02T06:29:49.649Z,91.51
2023-04-02T06:30:49.579Z,91.72
2023-04-02T06:31:49.613Z,92.03
2023-04-02T06:32:49.598Z,91.51
2023-04-02T06:33:49.606Z,91.93
2023-04-02T06:34:49.541Z,91.93
2023-04-02T06:35:49.532Z,91.82
2023-04-02T06:36:49.531Z,92.44
2023-04-02T06:37:49.505Z,92.34
2023-04-02T06:38:49.500Z,92.65
2023-04-02T06:39:49.507Z,92.55
2023-04-02T06:40:49.500Z,93.27
2023-04-02T06:41:49.460Z,92.76
2023-04-02T06:42:49.450Z,92.65
2023-04-02T06:43:49.447Z,92.03
2023-04-02T06:44:49.455Z,91.93
2023-04-02T06:45:49.508Z,92.09
2023-04-02T06:46:51.806Z,92.09
2023-04-02T06:47:49.429Z,91.88
2023-04-02T06:48:49.404Z,91.67
2023-04-02T06:49:49.400Z,91.09
2023-04-02T06:50:49.377Z,91.78
2023-04-02T06:51:49.360Z,91.67
2023-04-02T06:52:49.346Z,91.36
2023-04-02T06:53:49.341Z,91.47
2023-04-02T06:54:49.372Z,91.67
2023-04-02T06:55:49.331Z,90.47
2023-04-02T06:56:49.315Z,90.99
2023-04-02T06:57:49.301Z,90.47
2023-04-02T06:58:49.284Z,90.26
2023-04-02T06:59:49.276Z,90.47
2023-04-02T07:00:49.283Z,90.26
2023-04-02T07:01:49.329Z,89.89
2023-04-02T07:02:49.267Z,89.58
2023-04-02T07:03:49.239Z,89.89
2023-04-02T07:04:49.251Z,90.52
2023-04-02T07:05:49.221Z,90.33
2023-04-02T07:06:49.205Z,90.58
2023-04-02T07:07:49.191Z,89.54
2023-04-02T07:08:49.179Z,89.44
2023-04-02T07:09:49.179Z,89.34
2023-04-02T07:10:49.168Z,89.54
2023-04-02T07:11:49.145Z,89.13
2023-04-02T07:12:49.202Z,89.34
2023-04-02T07:13:49.116Z,90.06
2023-04-02T07:14:49.141Z,89.44
2023-04-02T07:15:49.144Z,89.75
2023-04-02T07:16:49.104Z,90.10
2023-04-02T07:17:49.108Z,89.75
2023-04-02T07:18:49.084Z,89.79
2023-04-02T07:19:49.066Z,89.13
2023-04-02T07:20:49.060Z,89.86
2023-04-02T07:21:49.049Z,90.06
2023-04-02T07:22:49.030Z,90.72
2023-04-02T07:23:49.025Z,90.47
2023-04-02T07:24:49.014Z,89.96
2023-04-02T07:25:49.009Z,90.26
2023-04-02T07:26:48.990Z,89.96
2023-04-02T07:27:48.973Z,89.75
2023-04-02T07:28:48.963Z,90.16
2023-04-02T07:29:48.949Z,90.16
2023-04-02T07:30:48.954Z,90.06
2023-04-02T07:31:49.198Z,89.86
2023-04-02T07:32:48.930Z,89.75
2023-04-02T07:33:48.916Z,90.47
2023-04-02T07:34:48.921Z,89.81
2023-04-02T07:35:48.910Z,89.48
2023-04-02T07:36:49.072Z,89.28
2023-04-02T07:37:48.885Z,90.52
2023-04-02T07:38:48.867Z,89.48
2023-04-02T07:39:48.843Z,90.00
2023-04-02T07:40:48.846Z,89.96
2023-04-02T07:41:48.829Z,89.69
2023-04-02T07:42:49.169Z,90.41
2023-04-02T07:43:48.896Z,90.72
2023-04-02T07:44:48.883Z,90.20
2023-04-02T07:45:49.835Z,90.62
2023-04-02T07:46:48.812Z,90.10
2023-04-02T07:47:48.834Z,90.20
2023-04-02T07:48:48.820Z,89.89
2023-04-02T07:49:48.774Z,90.04
2023-04-02T07:50:48.797Z,90.62
2023-04-02T07:51:48.992Z,90.62
2023-04-02T07:52:48.741Z,91.14
2023-04-02T07:53:48.715Z,90.35
2023-04-02T07:54:48.724Z,89.94
2023-04-02T07:55:48.704Z,90.35
2023-04-02T07:56:48.674Z,90.20
2023-04-02T07:57:48.681Z,90.77
2023-04-02T07:58:48.660Z,90.14
2023-04-02T07:59:48.648Z,89.89
2023-04-02T08:00:48.642Z,89.52
2023-04-02T08:01:48.649Z,90.14
2023-04-02T08:02:48.640Z,89.83
2023-04-02T08:03:48.651Z,90.14
2023-04-02T08:04:48.596Z,90.56
2023-04-02T08:05:48.611Z,90.77
2023-04-02T08:06:48.591Z,89.62
2023-04-02T08:07:48.555Z,90.25
2023-04-02T08:08:48.568Z,90.56
2023-04-02T08:09:48.544Z,91.49
2023-04-02T08:10:48.527Z,90.04
2023-04-02T08:11:48.529Z,89.73
2023-04-02T08:12:48.525Z,90.14
2023-04-02T08:13:48.522Z,90.35
2023-04-02T08:14:49.474Z,90.56
2023-04-02T08:15:48.493Z,90.14
2023-04-02T08:16:48.521Z,89.89
2023-04-02T08:17:48.516Z,89.83
2023-04-02T08:18:48.453Z,89.94
2023-04-02T08:19:54.795Z,89.94
2023-04-02T08:20:50.443Z,89.94
2023-04-02T08:21:48.449Z,90.14
2023-04-02T08:22:48.414Z,90.04
2023-04-02T08:23:48.473Z,89.87
2023-04-02T08:24:48.472Z,90.39
2023-04-02T08:25:48.375Z,90.39
2023-04-02T08:26:48.381Z,89.73
2023-04-02T08:27:48.363Z,90.66
2023-04-02T08:28:48.355Z,90.66
2023-04-02T08:29:48.341Z,89.73
2023-04-02T08:30:48.354Z,89.42
2023-04-02T08:31:48.326Z,89.11
2023-04-02T08:32:49.046Z,90.25
2023-04-02T08:33:48.307Z,90.35
2023-04-02T08:34:48.282Z,89.52
2023-04-02T08:35:48.320Z,89.62
2023-04-02T08:36:48.273Z,89.62
2023-04-02T08:37:48.265Z,89.62
2023-04-02T08:38:48.248Z,89.94
2023-04-02T08:39:48.303Z,89.83
2023-04-02T08:40:48.222Z,90.14
2023-04-02T08:41:48.248Z,89.83
2023-04-02T08:42:48.314Z,89.73
2023-04-02T08:43:48.192Z,90.04
2023-04-02T08:44:48.180Z,89.83
2023-04-02T08:45:48.185Z,90.04
2023-04-02T08:46:48.175Z,89.73
2023-04-02T08:47:48.176Z,89.42
2023-04-02T08:48:48.156Z,89.94
2023-04-02T08:49:48.136Z,89.94
2023-04-02T08:50:48.119Z,89.48
2023-04-02T08:51:48.112Z,90.00
2023-04-02T08:52:49.119Z,89.89
2023-04-02T08:53:48.102Z,89.89
2023-04-02T08:54:48.091Z,89.38
2023-04-02T08:55:48.119Z,89.38
2023-04-02T08:56:48.124Z,89.79
2023-04-02T08:57:48.060Z,90.00
2023-04-02T08:58:48.051Z,89.75
2023-04-02T08:59:48.053Z,88.40
2023-04-02T09:00:48.035Z,87.88
2023-04-02T09:01:48.046Z,88.34
2023-04-02T09:02:47.986Z,88.40
2023-04-02T09:03:47.972Z,87.93
2023-04-02T09:04:48.002Z,88.45
2023-04-02T09:05:47.964Z,89.79
2023-04-02T09:06:47.959Z,88.03
2023-04-02T09:07:47.948Z,89.69
2023-04-02T09:08:47.936Z,89.79
2023-04-02T09:09:47.916Z,89.28
2023-04-02T09:10:47.897Z,89.69
2023-04-02T09:11:48.917Z,90.10
2023-04-02T09:12:47.895Z,89.48
2023-04-02T09:13:47.889Z,88.34
2023-04-02T09:14:48.057Z,88.69
2023-04-02T09:15:47.927Z,87.76
2023-04-02T09:16:47.931Z,88.90
2023-04-02T09:17:54.021Z,89.79
2023-04-02T09:18:50.016Z,88.39
2023-04-02T09:19:47.808Z,88.28
2023-04-02T09:20:47.796Z,88.07
2023-04-02T09:21:47.795Z,88.69
2023-04-02T09:22:48.787Z,88.34
2023-04-02T09:23:47.769Z,88.13
2023-04-02T09:24:47.768Z,89.79
2023-04-02T09:25:57.392Z,89.17
2023-04-02T09:26:49.761Z,88.96
2023-04-02T09:27:47.725Z,88.55
2023-04-02T09:28:47.714Z,87.99
2023-04-02T09:29:47.705Z,88.51
2023-04-02T09:30:47.722Z,88.51
2023-04-02T09:31:47.718Z,87.20
2023-04-02T09:32:47.702Z,87.10
2023-04-02T09:33:47.659Z,87.93
2023-04-02T09:34:47.660Z,87.10
2023-04-02T09:35:47.671Z,87.41
2023-04-02T09:36:47.631Z,88.24
2023-04-02T09:37:47.636Z,86.93
2023-04-02T09:38:47.611Z,87.10
2023-04-02T09:39:47.604Z,87.93
2023-04-02T09:40:47.602Z,88.86
2023-04-02T09:41:55.798Z,87.62
2023-04-02T09:42:49.585Z,87.72
2023-04-02T09:43:47.562Z,87.20
2023-04-02T09:44:47.548Z,86.68
2023-04-02T09:45:47.541Z,87.10
2023-04-02T09:46:47.570Z,86.96
2023-04-02T09:47:47.568Z,86.96
2023-04-02T09:48:47.511Z,86.96
2023-04-02T09:49:47.499Z,86.85
2023-04-02T09:50:47.487Z,86.54
2023-04-02T09:51:47.480Z,86.02
2023-04-02T09:52:47.475Z,86.33
2023-04-02T09:53:47.459Z,86.85
2023-04-02T09:54:47.444Z,87.06
2023-04-02T09:55:47.447Z,85.92
2023-04-02T09:56:47.435Z,86.65
2023-04-02T09:57:47.425Z,87.16
2023-04-02T09:58:48.406Z,86.85
2023-04-02T09:59:47.389Z,86.81
2023-04-02T10:00:47.520Z,88.06
2023-04-02T10:01:47.415Z,86.50
2023-04-02T10:03:02.984Z,85.99
2023-04-02T10:03:48.401Z,87.12
2023-04-02T10:04:47.479Z,86.50
2023-04-02T10:05:47.602Z,85.88
2023-04-02T10:06:47.332Z,85.68
2023-04-02T10:07:47.332Z,87.12
2023-04-02T10:08:47.304Z,85.82
2023-04-02T10:09:47.294Z,86.23
2023-04-02T10:10:47.282Z,85.92
2023-04-02T10:11:47.270Z,85.57
2023-04-02T10:12:47.276Z,86.75
2023-04-02T10:13:47.290Z,85.71
2023-04-02T10:14:47.266Z,85.55
2023-04-02T10:15:47.258Z,85.48
2023-04-02T10:16:47.286Z,86.47
2023-04-02T10:17:47.258Z,87.14
2023-04-02T10:18:47.213Z,86.41
2023-04-02T10:19:47.259Z,86.99
2023-04-02T10:20:51.193Z,88.03
2023-04-02T10:21:48.185Z,86.89
2023-04-02T10:22:47.208Z,86.99
2023-04-02T10:23:47.146Z,87.10
2023-04-02T10:24:47.139Z,86.37
2023-04-02T10:25:47.122Z,87.30
2023-04-02T10:26:47.113Z,87.37
2023-04-02T10:27:47.126Z,86.02
2023-04-02T10:28:47.096Z,86.37
2023-04-02T10:29:47.097Z,85.96
2023-04-02T10:30:47.102Z,86.21
2023-04-02T10:31:47.066Z,86.93
2023-04-02T10:32:47.088Z,88.18
2023-04-02T10:33:47.062Z,87.72
2023-04-02T10:34:47.032Z,87.51
2023-04-02T10:35:47.104Z,86.62
2023-04-02T10:36:47.021Z,86.72
2023-04-02T10:37:47.141Z,87.04
2023-04-02T10:38:47.000Z,86.89
2023-04-02T10:39:47.003Z,86.68
2023-04-02T10:40:46.985Z,86.83
2023-04-02T10:41:46.985Z,86.72
2023-04-02T10:42:46.980Z,86.52
2023-04-02T10:43:46.956Z,86.68
2023-04-02T10:44:46.945Z,86.21
2023-04-02T10:45:46.996Z,85.58
2023-04-02T10:46:46.923Z,85.79
2023-04-02T10:47:46.969Z,86.83
2023-04-02T10:48:46.893Z,86.31
2023-04-02T10:49:46.971Z,85.79
2023-04-02T10:50:46.889Z,85.79
2023-04-02T10:51:46.868Z,86.47
2023-04-02T10:52:46.876Z,86.89
2023-04-02T10:53:46.856Z,86.27
2023-04-02T10:54:46.855Z,85.61
2023-04-02T10:55:46.862Z,85.71
2023-04-02T10:56:51.159Z,86.02
2023-04-02T10:57:47.828Z,85.40
2023-04-02T10:58:46.820Z,84.58
2023-04-02T10:59:46.830Z,84.78
2023-04-02T11:00:46.821Z,84.30
2023-04-02T11:01:46.831Z,84.99
2023-04-02T11:02:46.868Z,85.61
2023-04-02T11:03:46.886Z,84.61
2023-04-02T11:04:46.760Z,85.55
2023-04-02T11:05:46.736Z,85.34
2023-04-02T11:06:46.773Z,86.23
2023-04-02T11:07:46.722Z,86.33
2023-04-02T11:08:46.771Z,86.02
2023-04-02T11:09:46.719Z,85.09
2023-04-02T11:10:46.699Z,85.71
2023-04-02T11:11:46.694Z,85.30
2023-04-02T11:12:46.660Z,85.34
2023-04-02T11:13:46.687Z,84.88
2023-04-02T11:14:46.665Z,85.19
2023-04-02T11:15:46.680Z,85.61
2023-04-02T11:16:46.730Z,85.19
2023-04-02T11:17:46.631Z,85.50
2023-04-02T11:18:46.624Z,85.92
2023-04-02T11:19:46.590Z,85.65
2023-04-02T11:20:46.578Z,85.13
2023-04-02T11:21:58.120Z,85.75
2023-04-02T11:22:48.578Z,85.96
2023-04-02T11:23:46.576Z,85.65
2023-04-02T11:24:46.537Z,85.65
2023-04-02T11:25:46.525Z,85.75
2023-04-02T11:26:47.566Z,86.27
2023-04-02T11:27:46.509Z,86.47
2023-04-02T11:28:46.518Z,85.75
2023-04-02T11:29:46.507Z,85.65
2023-04-02T11:30:46.488Z,85.89
2023-04-02T11:31:46.537Z,84.65
2023-04-02T11:32:46.460Z,85.48
2023-04-02T11:33:48.843Z,84.23
2023-04-02T11:34:49.537Z,84.65
2023-04-02T11:35:47.457Z,85.06
2023-04-02T11:36:46.429Z,85.17
2023-04-02T11:37:46.401Z,85.38
2023-04-02T11:38:46.465Z,83.83
2023-04-02T11:39:46.422Z,83.41
2023-04-02T11:40:46.382Z,82.48
2023-04-02T11:41:46.350Z,83.20
2023-04-02T11:42:46.358Z,82.54
2023-04-02T11:43:46.357Z,82.34
2023-04-02T11:44:46.363Z,82.54
2023-04-02T11:45:52.912Z,83.20
2023-04-02T11:46:48.447Z,82.03
2023-04-02T11:47:46.347Z,82.75
2023-04-02T11:48:46.329Z,82.65
2023-04-02T11:49:46.271Z,82.44
2023-04-02T11:50:46.267Z,82.79
2023-04-02T11:51:46.274Z,82.58
2023-04-02T11:52:46.253Z,82.58
2023-04-02T11:53:46.269Z,83.00
2023-04-02T11:54:46.225Z,83.16
2023-04-02T11:55:46.217Z,84.20
2023-04-02T11:56:46.208Z,82.79
2023-04-02T11:57:46.191Z,83.47
2023-04-02T11:58:46.193Z,82.48
2023-04-02T11:59:46.171Z,82.58
2023-04-02T12:00:46.174Z,83.20
2023-04-02T12:01:46.206Z,83.51
2023-04-02T12:02:46.253Z,82.79
2023-04-02T12:03:46.152Z,82.65
2023-04-02T12:04:46.127Z,82.86
2023-04-02T12:05:46.153Z,82.17
2023-04-02T12:06:46.096Z,83.00
2023-04-02T12:07:46.084Z,82.89
2023-04-02T12:08:57.181Z,83.10
2023-04-02T12:09:48.092Z,81.96
2023-04-02T12:10:46.052Z,82.06
2023-04-02T12:11:46.061Z,81.75
2023-04-02T12:12:46.026Z,81.44
2023-04-02T12:13:46.045Z,81.44
2023-04-02T12:14:46.038Z,81.34
2023-04-02T12:15:46.009Z,80.71
2023-04-02T12:16:46.280Z,81.02
2023-04-02T12:17:45.994Z,81.30
2023-04-02T12:18:45.981Z,81.51
2023-04-02T12:19:45.983Z,80.78
2023-04-02T12:20:45.949Z,80.88
2023-04-02T12:21:45.935Z,80.88
2023-04-02T12:22:45.921Z,80.54
2023-04-02T12:23:45.928Z,80.05
2023-04-02T12:24:45.905Z,79.30
2023-04-02T12:25:45.889Z,80.64
2023-04-02T12:26:45.885Z,78.78
2023-04-02T12:27:45.876Z,78.78
2023-04-02T12:28:45.861Z,80.95
2023-04-02T12:29:45.865Z,81.16
2023-04-02T12:30:45.871Z,80.08
2023-04-02T12:31:45.812Z,78.26
2023-04-02T12:32:45.821Z,78.88
2023-04-02T12:33:45.800Z,78.99
2023-04-02T12:34:45.830Z,80.12
2023-04-02T12:35:45.799Z,80.08
2023-04-02T12:36:45.791Z,79.09
2023-04-02T12:37:45.757Z,79.05
2023-04-02T12:38:45.797Z,79.88
2023-04-02T12:39:45.804Z,78.64
2023-04-02T12:40:47.085Z,78.78
2023-04-02T12:41:45.745Z,79.16
2023-04-02T12:42:45.722Z,78.22
2023-04-02T12:43:45.778Z,79.09
2023-04-02T12:44:45.731Z,78.88
2023-04-02T12:45:45.708Z,78.05
2023-04-02T12:46:45.698Z,78.71
2023-04-02T12:47:45.720Z,78.61
2023-04-02T12:48:45.711Z,79.74
2023-04-02T12:49:45.711Z,80.12
2023-04-02T12:50:45.669Z,78.99
2023-04-02T12:51:45.665Z,78.36
2023-04-02T12:52:45.665Z,78.88